createdAt,value
2024-02-09T00:02:14.456Z,81.17
2024-02-09T00:04:42.129Z,82.27
2024-02-09T00:07:09.788Z,82.34
2024-02-09T00:09:36.668Z,82.02
2024-02-09T00:12:03.877Z,83.17
2024-02-09T00:14:31.484Z,82.79
2024-02-09T00:16:59.043Z,82.87
2024-02-09T00:19:26.869Z,83.27
2024-02-09T00:21:55.677Z,82.83
2024-02-09T00:24:22.844Z,81.71
2024-02-09T00:26:51.737Z,81.48
2024-02-09T00:29:20.049Z,81.19
2024-02-09T00:31:48.658Z,80.97
2024-02-09T00:34:16.375Z,80.87
2024-02-09T00:36:43.840Z,80.31
2024-02-09T00:39:10.512Z,80.53
2024-02-09T00:41:38.124Z,80.19
2024-02-09T00:44:06.673Z,80.23
2024-02-09T00:46:37.036Z,78.98
2024-02-09T00:49:05.117Z,80.34
2024-02-09T00:51:32.502Z,80.61
2024-02-09T00:53:59.086Z,80.05
2024-02-09T00:56:26.656Z,80.91
2024-02-09T00:58:53.330Z,80.17
2024-02-09T01:01:20.936Z,81.04
2024-02-09T01:03:48.432Z,81.04
2024-02-09T01:06:15.062Z,81.16
2024-02-09T01:08:42.617Z,80.88
2024-02-09T01:11:11.579Z,81.35
2024-02-09T01:13:38.886Z,81.38
2024-02-09T01:16:06.481Z,81.77
2024-02-09T01:18:34.976Z,81.25
2024-02-09T01:21:02.578Z,81.70
2024-02-09T01:23:30.147Z,81.73
2024-02-09T01:25:57.800Z,81.10
2024-02-09T01:28:24.533Z,81.65
2024-02-09T01:30:51.922Z,81.37
2024-02-09T01:33:19.572Z,80.71
2024-02-09T01:35:47.165Z,81.32
2024-02-09T01:38:15.750Z,80.67
2024-02-09T01:40:43.384Z,81.03
2024-02-09T01:43:10.982Z,80.59
2024-02-09T01:45:37.965Z,79.74
2024-02-09T01:48:05.216Z,79.63
2024-02-09T01:50:32.725Z,79.23
2024-02-09T01:53:01.387Z,79.79
2024-02-09T01:55:28.939Z,80.47
2024-02-09T01:57:56.535Z,80.14
2024-02-09T02:00:25.088Z,79.34
2024-02-09T02:02:52.682Z,79.15
2024-02-09T02:05:20.284Z,78.92
2024-02-09T02:07:47.860Z,80.24
2024-02-09T02:10:15.513Z,79.43
2024-02-09T02:12:43.080Z,79.60
2024-02-09T02:15:10.045Z,79.97
2024-02-09T02:17:38.283Z,79.97
2024-02-09T02:20:07.715Z,79.89
2024-02-09T02:22:37.509Z,79.90
2024-02-09T02:25:05.119Z,79.41
2024-02-09T02:27:34.315Z,79.55
2024-02-09T02:30:02.232Z,79.37
2024-02-09T02:32:30.884Z,79.76
2024-02-09T02:34:58.585Z,79.96
2024-02-09T02:37:26.017Z,79.20
2024-02-09T02:39:53.601Z,79.05
2024-02-09T02:42:21.179Z,79.38
2024-02-09T02:44:48.770Z,78.77
2024-02-09T02:47:17.993Z,78.78
2024-02-09T02:49:45.122Z,79.54
2024-02-09T02:52:13.578Z,80.13
2024-02-09T02:54:41.130Z,79.60
2024-02-09T02:57:09.757Z,80.30
2024-02-09T02:59:36.398Z,79.50
2024-02-09T03:02:04.996Z,79.33
2024-02-09T03:04:34.013Z,79.94
2024-02-09T03:07:23.585Z,80.24
2024-02-09T03:09:49.835Z,80.40
2024-02-09T03:12:17.370Z,79.91
2024-02-09T03:14:44.976Z,79.72
2024-02-09T03:17:12.617Z,80.25
2024-02-09T03:19:40.324Z,79.42
2024-02-09T03:22:07.837Z,79.45
2024-02-09T03:24:35.348Z,79.51
2024-02-09T03:27:03.022Z,78.77
2024-02-09T03:29:30.528Z,79.20
2024-02-09T03:31:58.144Z,79.14
2024-02-09T03:34:25.882Z,79.74
2024-02-09T03:36:53.324Z,80.66
2024-02-09T03:39:20.913Z,79.25
2024-02-09T03:41:49.585Z,79.31
2024-02-09T03:44:18.453Z,79.53
2024-02-09T03:46:46.738Z,79.59
2024-02-09T03:49:14.431Z,79.23
2024-02-09T03:51:43.463Z,78.89
2024-02-09T03:54:10.487Z,80.00
2024-02-09T03:56:39.243Z,79.78
2024-02-09T03:59:08.349Z,79.99
2024-02-09T04:01:35.358Z,78.71
2024-02-09T04:04:04.069Z,78.83
2024-02-09T04:06:31.510Z,78.95
2024-02-09T04:08:59.512Z,78.26
2024-02-09T04:11:27.706Z,79.24
2024-02-09T04:13:55.254Z,78.31
2024-02-09T04:16:22.980Z,77.66
2024-02-09T04:18:51.831Z,78.26
2024-02-09T04:21:20.035Z,78.24
2024-02-09T04:23:47.595Z,77.14
2024-02-09T04:26:15.246Z,77.20
2024-02-09T04:28:42.890Z,77.84
2024-02-09T04:31:09.970Z,77.62
2024-02-09T04:33:36.976Z,76.69
2024-02-09T04:36:05.579Z,77.12
2024-02-09T04:38:33.184Z,76.77
2024-02-09T04:41:01.762Z,77.75
2024-02-09T04:43:29.422Z,77.45
2024-02-09T04:45:56.370Z,77.20
2024-02-09T04:48:23.027Z,76.39
2024-02-09T04:50:50.140Z,77.12
2024-02-09T04:53:17.723Z,77.78
2024-02-09T04:55:45.482Z,76.53
2024-02-09T04:58:12.965Z,77.01
2024-02-09T05:00:40.540Z,75.94
2024-02-09T05:03:08.103Z,76.38
2024-02-09T05:05:35.794Z,76.38
2024-02-09T05:08:03.303Z,75.97
2024-02-09T05:10:30.061Z,76.03
2024-02-09T05:12:57.158Z,75.11
2024-02-09T05:15:24.117Z,75.36
2024-02-09T05:17:51.826Z,76.35
2024-02-09T05:20:19.276Z,76.09
2024-02-09T05:22:46.927Z,75.86
2024-02-09T05:25:14.509Z,74.35
2024-02-09T05:27:42.066Z,75.11
2024-02-09T05:30:08.676Z,75.24
2024-02-09T05:32:37.288Z,75.61
2024-02-09T05:35:04.954Z,75.69
2024-02-09T05:37:32.493Z,74.92
2024-02-09T05:40:01.098Z,74.20
2024-02-09T05:42:28.661Z,74.44
2024-02-09T05:44:55.919Z,74.53
2024-02-09T05:47:22.860Z,74.09
2024-02-09T05:49:49.622Z,74.40
2024-02-09T05:52:17.106Z,74.29
2024-02-09T05:54:44.625Z,75.27
2024-02-09T05:57:14.944Z,74.81
2024-02-09T05:59:43.851Z,75.77
2024-02-09T06:02:11.541Z,76.22
2024-02-09T06:04:39.304Z,76.27
2024-02-09T06:07:06.717Z,76.68
2024-02-09T06:09:35.310Z,77.35
2024-02-09T06:12:02.942Z,77.73
2024-02-09T06:14:29.938Z,78.08
2024-02-09T06:16:57.121Z,78.23
2024-02-09T06:19:25.089Z,78.33
2024-02-09T06:21:52.294Z,78.61
2024-02-09T06:24:21.530Z,78.97
2024-02-09T06:26:48.492Z,78.86
2024-02-09T06:29:16.063Z,79.31
2024-02-09T06:31:42.764Z,79.93
2024-02-09T06:34:10.403Z,79.90
2024-02-09T06:36:37.344Z,79.72
2024-02-09T06:39:04.548Z,79.63
2024-02-09T06:41:32.124Z,79.89
2024-02-09T06:43:58.774Z,79.30
2024-02-09T06:46:25.370Z,79.34
2024-02-09T06:48:52.079Z,80.14
2024-02-09T06:51:19.622Z,79.88
2024-02-09T06:53:46.401Z,79.82
2024-02-09T06:56:13.517Z,79.97
2024-02-09T06:58:42.627Z,80.95
2024-02-09T07:01:09.588Z,81.17
2024-02-09T07:03:37.176Z,81.16
2024-02-09T07:06:04.036Z,80.66
2024-02-09T07:08:32.337Z,80.79
2024-02-09T07:11:00.162Z,80.87
2024-02-09T07:13:27.740Z,80.93
2024-02-09T07:15:55.354Z,80.80
2024-02-09T07:18:22.160Z,80.85
2024-02-09T07:20:49.722Z,79.95
2024-02-09T07:23:16.411Z,79.81
2024-02-09T07:25:43.147Z,79.82
2024-02-09T07:28:11.666Z,79.34
2024-02-09T07:30:40.202Z,79.25
2024-02-09T07:33:08.910Z,79.39
2024-02-09T07:35:36.394Z,79.43
2024-02-09T07:38:04.122Z,78.51
2024-02-09T07:40:31.632Z,76.26
2024-02-09T07:42:59.237Z,76.59
2024-02-09T07:45:26.748Z,75.64
2024-02-09T07:47:54.404Z,73.08
2024-02-09T07:50:20.900Z,73.18
2024-02-09T07:52:47.971Z,72.33
2024-02-09T07:55:15.248Z,73.11
2024-02-09T07:57:43.703Z,73.53
2024-02-09T08:00:10.296Z,72.39
2024-02-09T08:02:39.862Z,72.70
2024-02-09T08:05:07.537Z,72.88
2024-02-09T08:07:35.141Z,71.77
2024-02-09T08:10:03.688Z,72.62
2024-02-09T08:12:31.241Z,72.44
2024-02-09T08:14:58.838Z,73.79
2024-02-09T08:17:26.475Z,73.98
2024-02-09T08:19:53.702Z,74.25
2024-02-09T08:22:20.663Z,74.32
2024-02-09T08:24:50.017Z,74.57
2024-02-09T08:27:16.598Z,75.19
2024-02-09T08:29:43.477Z,75.41
2024-02-09T08:32:12.088Z,75.77
2024-02-09T08:34:39.795Z,75.72
2024-02-09T08:37:07.273Z,74.97
2024-02-09T08:39:36.634Z,74.46
2024-02-09T08:42:03.458Z,75.53
2024-02-09T08:44:31.018Z,74.55
2024-02-09T08:47:00.482Z,75.59
2024-02-09T08:49:29.352Z,74.60
2024-02-09T08:51:56.046Z,73.88
2024-02-09T08:54:24.401Z,73.96
2024-02-09T08:56:53.012Z,74.33
2024-02-09T08:59:20.645Z,74.05
2024-02-09T09:01:49.403Z,73.93
2024-02-09T09:04:17.871Z,72.61
2024-02-09T09:06:45.623Z,74.23
2024-02-09T09:09:13.087Z,72.20
2024-02-09T09:11:41.835Z,71.85
2024-02-09T09:14:09.490Z,73.44
2024-02-09T09:16:37.218Z,72.43
2024-02-09T09:19:04.111Z,73.66
2024-02-09T09:21:32.935Z,72.50
2024-02-09T09:24:01.205Z,71.50
2024-02-09T09:26:30.083Z,71.02
2024-02-09T09:28:57.401Z,72.16
2024-02-09T09:31:25.041Z,71.69
2024-02-09T09:33:52.582Z,70.85
2024-02-09T09:36:21.182Z,70.60
2024-02-09T09:38:48.783Z,70.69
2024-02-09T09:41:17.550Z,69.68
2024-02-09T09:43:45.001Z,68.62
2024-02-09T09:46:13.613Z,67.85
2024-02-09T09:48:41.209Z,69.09
2024-02-09T09:51:08.741Z,69.43
2024-02-09T09:53:35.743Z,70.36
2024-02-09T09:56:05.747Z,71.20
2024-02-09T09:58:33.541Z,68.58
2024-02-09T10:01:02.275Z,70.35
2024-02-09T10:03:30.826Z,70.71
2024-02-09T10:05:59.587Z,69.40
2024-02-09T10:08:27.963Z,69.75
2024-02-09T10:10:56.570Z,70.78
2024-02-09T10:13:24.202Z,69.79
2024-02-09T10:15:51.743Z,69.84
2024-02-09T10:18:20.423Z,70.13
2024-02-09T10:20:47.912Z,70.54
2024-02-09T10:23:15.622Z,71.08
2024-02-09T10:25:43.244Z,70.17
2024-02-09T10:28:10.832Z,71.38
2024-02-09T10:30:38.394Z,70.99
2024-02-09T10:33:06.051Z,70.72
2024-02-09T10:35:34.772Z,70.83
2024-02-09T10:40:54.246Z,70.00
2024-02-09T10:43:20.794Z,70.03
2024-02-09T10:45:49.765Z,69.64
2024-02-09T10:48:17.792Z,70.39
2024-02-09T10:50:45.343Z,70.11
2024-02-09T10:53:12.192Z,70.62
2024-02-09T10:55:40.816Z,70.09
2024-02-09T10:58:09.151Z,69.99
2024-02-09T11:00:36.758Z,70.63
2024-02-09T11:03:04.329Z,71.59
2024-02-09T11:05:33.050Z,71.80
2024-02-09T11:08:00.529Z,71.25
2024-02-09T11:10:28.147Z,69.26
2024-02-09T11:12:55.676Z,70.95
2024-02-09T11:15:23.267Z,69.90
2024-02-09T11:17:50.217Z,70.61
2024-02-09T11:20:17.461Z,70.53
2024-02-09T11:22:44.122Z,69.99
2024-02-09T11:25:13.058Z,71.31
2024-02-09T11:27:41.765Z,70.49
2024-02-09T11:30:10.104Z,68.99
2024-02-09T11:32:37.791Z,69.28
2024-02-09T11:35:05.408Z,70.00
2024-02-09T11:37:32.622Z,70.07
2024-02-09T11:39:59.709Z,68.80
2024-02-09T11:42:34.962Z,69.14
2024-02-09T11:45:04.131Z,68.87
2024-02-09T11:47:33.656Z,69.39
2024-02-09T11:50:02.351Z,68.05
2024-02-09T11:52:30.965Z,67.74
2024-02-09T11:54:59.985Z,67.35
2024-02-09T11:57:27.499Z,67.24
2024-02-09T11:59:55.084Z,66.56
2024-02-09T12:02:23.189Z,65.55
2024-02-09T12:04:54.321Z,69.19
2024-02-09T12:07:25.353Z,67.88
2024-02-09T12:09:53.973Z,68.42
2024-02-09T12:12:33.663Z,67.48
2024-02-09T12:15:02.266Z,68.14
2024-02-09T12:17:29.867Z,69.04
2024-02-09T12:19:58.419Z,68.81
2024-02-09T12:22:27.059Z,68.54
2024-02-09T12:24:55.591Z,68.86
2024-02-09T12:27:23.194Z,68.00
2024-02-09T12:29:50.777Z,68.99
2024-02-09T12:32:17.401Z,71.01
2024-02-09T12:34:44.979Z,70.78
2024-02-09T12:37:12.583Z,70.47
2024-02-09T12:39:40.178Z,70.48
2024-02-09T12:42:07.759Z,71.54
2024-02-09T12:44:35.339Z,71.57
2024-02-09T12:47:02.938Z,71.02
2024-02-09T12:49:30.650Z,72.07
2024-02-09T12:51:58.132Z,72.46
2024-02-09T12:54:25.733Z,72.24
2024-02-09T12:56:54.310Z,72.98
2024-02-09T12:59:21.888Z,72.33
2024-02-09T13:01:51.400Z,73.84
2024-02-09T13:04:20.203Z,74.17
2024-02-09T13:06:47.673Z,73.92
2024-02-09T13:09:15.299Z,72.53
2024-02-09T13:11:42.866Z,73.22
2024-02-09T13:14:10.467Z,73.76
2024-02-09T13:16:38.095Z,74.48
2024-02-09T13:19:05.716Z,75.38
2024-02-09T13:21:34.258Z,73.54
2024-02-09T13:24:03.029Z,73.75
2024-02-09T13:26:30.482Z,73.79
2024-02-09T13:28:58.093Z,74.48
2024-02-09T13:31:26.775Z,74.03
2024-02-09T13:33:55.240Z,74.22
2024-02-09T13:36:21.820Z,73.63
2024-02-09T13:38:49.432Z,73.37
2024-02-09T13:41:18.827Z,73.08
2024-02-09T13:43:45.646Z,73.01
2024-02-09T13:46:13.205Z,73.16
2024-02-09T13:48:40.793Z,72.31
2024-02-09T13:51:07.505Z,73.60
2024-02-09T13:53:34.990Z,74.29
2024-02-09T13:56:02.556Z,73.86
2024-02-09T13:58:31.194Z,73.55
2024-02-09T14:00:58.770Z,73.65
2024-02-09T14:03:26.344Z,73.05
2024-02-09T14:05:55.439Z,73.30
2024-02-09T14:08:22.549Z,73.37
2024-02-09T14:10:50.149Z,73.64
2024-02-09T14:13:17.717Z,73.16
2024-02-09T14:15:45.323Z,71.67
2024-02-09T14:18:13.940Z,71.73
2024-02-09T14:20:41.513Z,72.25
2024-02-09T14:23:10.511Z,72.21
2024-02-09T14:25:37.734Z,70.81
2024-02-09T14:28:05.297Z,69.40
2024-02-09T14:30:34.321Z,69.13
2024-02-09T14:33:01.704Z,69.23
2024-02-09T14:35:29.140Z,69.20
2024-02-09T14:37:56.751Z,68.54
2024-02-09T14:40:24.336Z,69.56
2024-02-09T14:42:51.977Z,68.86
2024-02-09T14:45:19.528Z,70.17
2024-02-09T14:47:47.128Z,70.45
2024-02-09T14:50:14.749Z,70.17
2024-02-09T14:52:42.336Z,71.63
2024-02-09T14:55:09.944Z,70.87
2024-02-09T14:57:37.519Z,70.01
2024-02-09T15:00:04.473Z,68.86
2024-02-09T15:02:32.702Z,69.47
2024-02-09T15:05:01.527Z,67.94
2024-02-09T15:07:29.926Z,69.17
2024-02-09T15:09:57.460Z,69.62
2024-02-09T15:12:26.417Z,69.75
2024-02-09T15:14:53.651Z,68.86
2024-02-09T15:17:21.305Z,67.79
2024-02-09T15:19:49.083Z,69.17
2024-02-09T15:22:16.460Z,70.40
2024-02-09T15:24:43.527Z,69.37
2024-02-09T15:27:10.644Z,71.17
2024-02-09T15:29:38.238Z,73.37
2024-02-09T15:32:05.818Z,73.09
2024-02-09T15:34:33.643Z,74.58
2024-02-09T15:37:00.999Z,74.64
2024-02-09T15:39:29.601Z,75.54
2024-02-09T15:41:57.210Z,75.08
2024-02-09T15:44:24.897Z,75.11
2024-02-09T15:46:52.493Z,76.41
2024-02-09T15:49:19.382Z,75.91
2024-02-09T15:51:46.580Z,76.14
2024-02-09T15:54:14.168Z,76.31
2024-02-09T15:56:41.760Z,77.99
2024-02-09T15:59:10.723Z,77.89
2024-02-09T16:01:38.974Z,79.35
2024-02-09T16:04:07.589Z,80.02
2024-02-09T16:06:34.248Z,79.82
2024-02-09T16:09:03.400Z,80.54
2024-02-09T16:11:32.235Z,80.81
2024-02-09T16:13:58.924Z,80.15
2024-02-09T16:16:29.512Z,80.35
2024-02-09T16:18:57.169Z,81.19
2024-02-09T16:21:25.730Z,80.74
2024-02-09T16:23:54.325Z,80.86
2024-02-09T16:26:21.993Z,80.69
2024-02-09T16:28:49.533Z,81.37
2024-02-09T16:31:18.213Z,82.00
2024-02-09T16:33:46.866Z,82.71
2024-02-09T16:36:14.333Z,81.83
2024-02-09T16:38:41.924Z,82.58
2024-02-09T16:41:09.706Z,82.91
2024-02-09T16:43:37.144Z,83.63
2024-02-09T16:46:04.680Z,84.11
2024-02-09T16:48:33.453Z,84.49
2024-02-09T16:51:04.787Z,84.20
2024-02-09T16:53:33.522Z,84.21
2024-02-09T16:56:02.982Z,84.02
2024-02-09T16:58:31.739Z,84.01
2024-02-09T17:01:02.420Z,83.61
2024-02-09T17:03:31.718Z,84.20
2024-02-09T17:06:01.448Z,84.10
2024-02-09T17:11:11.823Z,84.72
2024-02-09T17:13:40.859Z,84.48
2024-02-09T17:18:51.967Z,85.18
2024-02-09T17:21:24.274Z,84.31
2024-02-09T17:23:53.938Z,83.83
2024-02-09T17:26:30.161Z,84.10
2024-02-09T17:31:45.521Z,83.69
2024-02-09T17:34:16.536Z,83.26
2024-02-09T17:39:38.959Z,83.06
2024-02-09T17:45:13.803Z,82.15
2024-02-09T17:47:43.958Z,80.75
2024-02-09T17:50:11.245Z,80.68
2024-02-09T17:52:38.819Z,80.48
2024-02-09T17:55:08.946Z,79.61
2024-02-09T17:57:36.986Z,80.17
2024-02-09T18:00:05.603Z,79.03
2024-02-09T18:02:35.023Z,79.44
2024-02-09T18:05:05.231Z,78.77
2024-02-09T18:07:35.147Z,78.72
2024-02-09T18:10:03.012Z,78.99
2024-02-09T18:12:31.627Z,78.77
2024-02-09T18:14:59.241Z,78.87
2024-02-09T18:17:29.020Z,78.90
2024-02-09T18:19:57.517Z,78.50
2024-02-09T18:22:26.206Z,78.41
2024-02-09T18:24:53.763Z,77.12
2024-02-09T18:27:22.972Z,78.34
2024-02-09T18:29:50.016Z,77.78
2024-02-09T18:32:20.269Z,78.00
2024-02-09T18:34:49.181Z,78.94
2024-02-09T18:37:16.710Z,79.58
2024-02-09T18:39:44.175Z,80.96
2024-02-09T18:42:11.756Z,80.95
2024-02-09T18:44:40.357Z,81.98
2024-02-09T18:47:11.330Z,82.24
2024-02-09T18:49:39.572Z,82.49
2024-02-09T18:52:07.202Z,82.35
2024-02-09T18:54:37.483Z,82.55
2024-02-09T18:57:05.316Z,84.13
2024-02-09T18:59:31.876Z,84.54
2024-02-09T19:02:00.934Z,85.87
2024-02-09T19:04:29.168Z,86.23
2024-02-09T19:06:56.760Z,86.82
2024-02-09T19:09:25.343Z,86.26
2024-02-09T19:11:52.985Z,86.01
2024-02-09T19:14:22.188Z,85.76
2024-02-09T19:16:54.691Z,85.81
2024-02-09T19:19:23.415Z,85.81
2024-02-09T19:21:51.502Z,85.84
2024-02-09T19:24:20.182Z,85.46
2024-02-09T19:26:51.523Z,85.93
2024-02-09T19:29:19.481Z,86.00
2024-02-09T19:31:47.190Z,86.87
2024-02-09T19:34:17.092Z,86.79
2024-02-09T19:36:45.350Z,86.43
2024-02-09T19:39:13.985Z,86.85
2024-02-09T19:41:40.589Z,86.85
2024-02-09T19:44:11.197Z,86.39
2024-02-09T19:46:40.927Z,86.10
2024-02-09T19:49:10.548Z,85.81
2024-02-09T19:51:39.429Z,85.97
2024-02-09T19:54:13.454Z,85.68
2024-02-09T19:56:41.846Z,85.33
2024-02-09T19:59:10.261Z,85.95
2024-02-09T20:01:40.427Z,86.47
2024-02-09T20:04:07.587Z,86.94
2024-02-09T20:06:36.281Z,86.85
2024-02-09T20:09:03.761Z,86.74
2024-02-09T20:11:35.433Z,87.66
2024-02-09T20:14:05.870Z,87.26
2024-02-09T20:16:36.484Z,87.09
2024-02-09T20:19:04.671Z,87.12
2024-02-09T20:21:33.160Z,87.42
2024-02-09T20:24:01.530Z,87.03
2024-02-09T20:29:09.781Z,87.44
2024-02-09T20:31:38.968Z,86.88
2024-02-09T20:34:06.047Z,87.41
2024-02-09T20:36:33.564Z,87.11
2024-02-09T20:39:02.242Z,86.86
2024-02-09T20:41:31.478Z,86.22
2024-02-09T20:44:00.474Z,86.70
2024-02-09T20:46:28.088Z,85.73
2024-02-09T20:48:56.818Z,85.90
2024-02-09T20:51:25.994Z,86.03
2024-02-09T20:53:54.763Z,86.24
2024-02-09T20:56:23.453Z,86.11
2024-02-09T20:58:52.530Z,86.46
2024-02-09T21:01:19.842Z,86.13
2024-02-09T21:03:47.300Z,86.49
2024-02-09T21:06:15.920Z,86.38
2024-02-09T21:08:43.468Z,86.59
2024-02-09T21:11:11.220Z,85.97
2024-02-09T21:13:40.150Z,86.49
2024-02-09T21:16:08.364Z,85.99
2024-02-09T21:18:35.932Z,85.91
2024-02-09T21:21:03.454Z,85.82
2024-02-09T21:23:31.051Z,86.12
2024-02-09T21:25:59.803Z,85.74
2024-02-09T21:28:29.033Z,85.77
2024-02-09T21:30:56.870Z,85.22
2024-02-09T21:33:24.553Z,85.23
2024-02-09T21:35:53.621Z,85.21
2024-02-09T21:38:20.737Z,86.13
2024-02-09T21:40:49.783Z,86.12
2024-02-09T21:43:17.975Z,86.64
2024-02-09T21:45:45.613Z,86.53
2024-02-09T21:48:13.238Z,86.57
2024-02-09T21:50:42.113Z,85.99
2024-02-09T21:53:09.381Z,86.40
2024-02-09T21:55:38.014Z,85.48
2024-02-09T21:58:04.758Z,85.96
2024-02-09T22:00:33.418Z,85.96
2024-02-09T22:03:02.403Z,85.41
2024-02-09T22:05:29.677Z,85.73
2024-02-09T22:07:57.315Z,85.33
2024-02-09T22:10:25.995Z,85.68
2024-02-09T22:12:53.603Z,85.63
2024-02-09T22:15:21.244Z,85.89
2024-02-09T22:17:50.378Z,85.44
2024-02-09T22:20:17.577Z,86.10
2024-02-09T22:22:46.160Z,86.07
2024-02-09T22:25:15.436Z,86.08
2024-02-09T22:27:42.318Z,86.17
2024-02-09T22:30:10.885Z,85.74
2024-02-09T22:32:37.585Z,86.13
2024-02-09T22:35:05.123Z,86.80
2024-02-09T22:37:32.785Z,86.05
2024-02-09T22:40:01.637Z,86.58
2024-02-09T22:42:29.953Z,86.69
2024-02-09T22:44:58.641Z,86.42
2024-02-09T22:47:26.272Z,86.98
2024-02-09T22:49:55.584Z,87.06
2024-02-09T22:52:22.582Z,87.52
2024-02-09T22:54:50.131Z,87.65
2024-02-09T22:57:17.819Z,87.38
2024-02-09T22:59:45.436Z,87.02
2024-02-09T23:02:13.003Z,86.78
2024-02-09T23:04:42.107Z,86.73
2024-02-09T23:07:09.347Z,87.28
2024-02-09T23:09:37.780Z,86.80
2024-02-09T23:12:06.611Z,86.65
2024-02-09T23:14:35.788Z,86.89
2024-02-09T23:17:02.759Z,86.74
2024-02-09T23:19:29.832Z,86.87
2024-02-09T23:21:58.039Z,86.69
2024-02-09T23:24:25.664Z,86.79
2024-02-09T23:26:53.527Z,86.38
2024-02-09T23:29:22.068Z,85.96
2024-02-09T23:31:50.536Z,85.82
2024-02-09T23:34:20.370Z,85.58
2024-02-09T23:36:47.649Z,86.07
2024-02-09T23:39:16.404Z,85.58
2024-02-09T23:41:43.905Z,85.87
2024-02-09T23:44:11.421Z,85.49
2024-02-09T23:46:42.182Z,85.94
2024-02-09T23:49:10.777Z,85.30
2024-02-09T23:51:39.808Z,86.01
2024-02-09T23:54:07.890Z,85.12
2024-02-09T23:56:36.553Z,85.79
2024-02-09T23:59:04.083Z,85.51
